Happy Valentine's Day! 

Flight Track Log - Related Links

Times and Time Zones

All times are in EDT time to prevent confusion due to time zone crossing. See the N81ER flight status page for this flight to view local times or setup timezone preferences in your user account.


Time Position Orientation Groundspeed Altitude Reporting Facility
EDT Latitude Longitude Course Direction KTS MPH feet Rate Location/Type
Wed 06:06:56 AM 42.6622 -83.4433 274° West 121 139 1,600  Level Cleveland Center
Wed 06:07:21 AM 42.6636 -83.4717 274° West 200 230 2,400 2,753 Climbing Cleveland Center
Wed 06:08:21 AM 42.6208 -83.5178 218° Southwest 207 238 5,500 3,074 Climbing Cleveland Center
Wed 06:09:22 AM 42.5578 -83.5403 195° South 242 278 8,600 2,588 Climbing Cleveland Center
Wed 06:14:32 AM 42.1360 -83.6620 195° South 321 369 21,500 2,180 Climbing FlightAware ADS-B
Wed 06:15:17 AM 42.0770 -83.6780 191° South 321 369 21,500  Level FlightAware ADS-B
Wed 06:15:47 AM 42.0400 -83.6890 192° South 321 369 21,500  Level FlightAware ADS-B
Wed 06:16:37 AM 41.9780 -83.7070 192° South 321 369 21,500  Level FlightAware ADS-B
Wed 06:17:17 AM 41.9280 -83.7210 192° South 321 369 21,500  Level FlightAware ADS-B
Wed 06:17:57 AM 41.8790 -83.7350 192° South 321 369 21,500 188 Level FlightAware ADS-B
Wed 06:19:57 AM 41.6180 -83.8790 202° Southwest 369 425 22,000 188 Climbing FlightAware ADS-B
Wed 06:20:37 AM 41.5810 -83.9550 237° Southwest 369 425 22,000  Level FlightAware ADS-B
Wed 06:21:17 AM 41.5430 -84.0330 237° Southwest 370 426 22,000  Level FlightAware ADS-B
Wed 06:22:02 AM 41.5030 -84.1180 238° Southwest 370 426 22,000  Level FlightAware ADS-B
Wed 06:22:52 AM 41.4580 -84.2090 237° Southwest 370 426 22,000  Level FlightAware ADS-B
Wed 06:23:37 AM 41.4150 -84.2990 238° Southwest 369 425 22,000  Level FlightAware ADS-B
Wed 06:24:17 AM 41.3780 -84.3760 237° Southwest 369 425 22,000  Level FlightAware ADS-B
Wed 06:25:02 AM 41.3360 -84.4620 237° Southwest 369 425 22,000  Level FlightAware ADS-B
Wed 06:25:42 AM 41.3000 -84.5370 237° Southwest 370 426 22,000  Level FlightAware ADS-B
Wed 06:26:27 AM 41.2570 -84.6230 236° Southwest 371 427 22,000  Level FlightAware ADS-B
Wed 06:27:07 AM 41.2190 -84.7020 237° Southwest 371 427 22,000  Level FlightAware ADS-B
Wed 06:27:52 AM 41.1770 -84.7860 236° Southwest 372 428 22,000  Level FlightAware ADS-B
Wed 06:28:07 AM 41.1590 -84.8070 221° Southwest 370 426 22,000  Level FlightAware ADS-B
Wed 06:28:47 AM 41.0970 -84.8500 208° Southwest 370 426 22,000 -225 Level FlightAware ADS-B
Wed 06:29:27 AM 41.0360 -84.8890 206° Southwest 366 421 21,700 -776 Descending FlightAware ADS-B
Wed 06:30:12 AM 40.9660 -84.9340 206° Southwest 355 409 20,900 -1,059 Descending FlightAware ADS-B
Wed 06:30:52 AM 40.9080 -84.9710 206° Southwest 348 400 20,200 -635 Descending FlightAware ADS-B
Wed 06:31:37 AM 40.8480 -85.0090 206° Southwest 338 389 20,000 -141 Descending FlightAware ADS-B
Wed 06:32:17 AM 40.7930 -85.0440 206° Southwest 344 396 20,000  Level FlightAware ADS-B
Wed 06:32:52 AM 40.7380 -85.0790 206° Southwest 348 400 20,000  Level FlightAware ADS-B
Wed 06:33:32 AM 40.6800 -85.1160 206° Southwest 350 403 20,000  Level FlightAware ADS-B
Wed 06:34:07 AM 40.6330 -85.1460 206° Southwest 351 404 20,000  Level FlightAware ADS-B
Wed 06:34:57 AM 40.5560 -85.1940 205° Southwest 351 404 20,000 -333 Level FlightAware ADS-B
Wed 06:35:37 AM 40.4950 -85.2330 206° Southwest 352 405 19,500 -1,271 Descending FlightAware ADS-B
Wed 06:36:22 AM 40.4300 -85.2740 206° Southwest 339 390 18,200 -1,553 Descending FlightAware ADS-B
Wed 06:37:02 AM 40.3730 -85.3090 205° Southwest 336 387 17,300 -1,412 Descending FlightAware ADS-B
Wed 06:37:47 AM 40.3090 -85.3490 205° Southwest 332 382 16,200 -1,412 Descending FlightAware ADS-B
Wed 06:38:27 AM 40.2550 -85.3840 206° Southwest 324 373 15,300 -800 Descending FlightAware ADS-B
Wed 06:39:02 AM 40.2170 -85.4230 218° Southwest 324 373 15,200 -71 Descending FlightAware ADS-B
Wed 06:39:52 AM 40.1680 -85.4750 219° Southwest 324 373 15,200  Level FlightAware ADS-B
Wed 06:40:32 AM 40.1280 -85.5170 219° Southwest 324 373 15,200  Level FlightAware ADS-B
Wed 06:41:12 AM 40.0890 -85.5590 219° Southwest 324 373 15,200  Level FlightAware ADS-B
Wed 06:41:52 AM 40.0490 -85.6010 219° Southwest 324 373 15,200  Level FlightAware ADS-B
Wed 06:42:32 AM 40.0090 -85.6430 219° Southwest 324 373 15,200 -4,909 Level FlightAware ADS-B
Wed 06:43:09 AM 40.0450 -85.8247 219° Southwest 301 346 8,900 -4,837 Descending Chicago Center
Wed 06:44:10 AM 40.0058 -85.9094 239° Southwest 277 319 7,300 -1,636 Descending Chicago Center
Wed 06:45:10 AM 39.9689 -85.9917 240° Southwest 266 306 5,600 -1,792 Descending Chicago Center
Wed 06:45:27 AM 39.9500 -86.0167 225° Southwest 256 295 5,000 -1,742 Descending Indianapolis TRACON
Wed 06:46:12 AM 39.9281 -86.0817 246° West 250 288 3,800 -1,132 Descending Indianapolis Center
Wed 06:47:13 AM 39.8953 -86.1536 239° Southwest 239 275 3,000 -552 Descending Indianapolis Center
Wed 06:47:39 AM 39.8833 -86.1833 242° Southwest 214 246 3,000 -102 Level Indianapolis TRACON
Wed 06:48:12 AM 39.8869 -86.2186 278° West 204 235 2,900 -182 Descending Chicago Center

Login

Don't have an account? Register now (free) for customized features, flight alerts, and more!